createdAt,value
2018-07-31T00:01:11.674Z,25.43
2018-07-31T00:03:40.672Z,25.41
2018-07-31T00:06:30.394Z,25.23
2018-07-31T00:08:59.275Z,25.35
2018-07-31T00:11:28.130Z,25.40
2018-07-31T00:13:57.018Z,25.21
2018-07-31T00:16:31.883Z,25.13
2018-07-31T00:19:01.847Z,25.11
2018-07-31T00:21:30.724Z,25.18
2018-07-31T00:24:00.651Z,24.87
2018-07-31T00:26:29.505Z,25.06
2018-07-31T00:28:58.402Z,25.21
2018-07-31T00:31:29.383Z,25.11
2018-07-31T00:33:58.251Z,25.20
2018-07-31T00:36:27.097Z,25.05
2018-07-31T00:38:55.965Z,25.19
2018-07-31T00:41:29.529Z,25.16
2018-07-31T00:43:58.404Z,24.90
2018-07-31T00:46:27.267Z,25.00
2018-07-31T00:49:04.246Z,24.95
2018-07-31T00:51:41.114Z,24.98
2018-07-31T00:54:10.012Z,24.93
2018-07-31T00:56:50.017Z,24.84
2018-07-31T00:59:18.893Z,24.79
2018-07-31T01:01:47.778Z,24.87
2018-07-31T01:04:30.334Z,24.86
2018-07-31T01:06:59.219Z,24.88
2018-07-31T01:09:45.033Z,24.88
2018-07-31T01:12:27.088Z,24.85
2018-07-31T01:14:55.987Z,24.83
2018-07-31T01:17:24.867Z,24.77
2018-07-31T01:22:59.232Z,24.69
2018-07-31T01:25:28.119Z,24.54
2018-07-31T01:27:57.199Z,24.68
2018-07-31T01:30:26.064Z,24.53
2018-07-31T01:32:54.922Z,24.50
2018-07-31T01:35:23.773Z,24.56
2018-07-31T01:40:55.772Z,24.72
2018-07-31T01:43:28.244Z,24.49
2018-07-31T01:45:57.216Z,24.58
2018-07-31T01:48:26.086Z,24.46
2018-07-31T01:50:54.943Z,24.52
2018-07-31T01:53:23.833Z,24.50
2018-07-31T01:55:52.716Z,24.53
2018-07-31T01:58:21.562Z,24.52
2018-07-31T02:00:50.430Z,24.52
2018-07-31T02:03:19.326Z,24.22
2018-07-31T02:05:48.212Z,24.21
2018-07-31T02:08:21.502Z,24.20
2018-07-31T02:10:50.476Z,24.01
2018-07-31T02:13:19.473Z,24.23
2018-07-31T02:15:48.345Z,23.93
2018-07-31T02:18:39.335Z,24.02
2018-07-31T02:21:08.206Z,24.17
2018-07-31T02:23:37.428Z,24.02
2018-07-31T02:26:10.412Z,24.10
2018-07-31T02:28:39.312Z,24.11
2018-07-31T02:31:20.360Z,24.11
2018-07-31T02:33:49.244Z,24.08
2018-07-31T02:36:23.819Z,23.96
2018-07-31T02:38:52.693Z,23.94
2018-07-31T02:41:21.598Z,24.01
2018-07-31T02:43:50.441Z,23.98
2018-07-31T02:46:19.314Z,23.92
2018-07-31T02:48:48.286Z,23.71
2018-07-31T02:51:21.064Z,23.75
2018-07-31T02:53:49.914Z,23.77
2018-07-31T02:56:22.838Z,23.72
2018-07-31T02:58:51.682Z,23.75
2018-07-31T03:01:20.577Z,23.78
2018-07-31T03:03:49.446Z,23.70
2018-07-31T03:06:18.347Z,23.57
2018-07-31T03:08:47.244Z,23.62
2018-07-31T03:11:16.097Z,23.69
2018-07-31T03:13:44.950Z,23.60
2018-07-31T03:16:14.082Z,23.55
2018-07-31T03:18:43.008Z,23.45
2018-07-31T03:21:11.888Z,23.46
2018-07-31T03:23:40.737Z,23.52
2018-07-31T03:26:09.634Z,23.57
2018-07-31T03:28:38.478Z,23.56
2018-07-31T03:31:07.390Z,23.57
2018-07-31T03:33:37.310Z,23.44
2018-07-31T03:36:06.189Z,23.68
2018-07-31T03:38:36.061Z,23.56
2018-07-31T03:41:04.932Z,23.58
2018-07-31T03:43:42.004Z,23.61
2018-07-31T03:46:21.696Z,23.61
2018-07-31T03:49:00.681Z,23.49
2018-07-31T03:51:33.416Z,23.48
2018-07-31T03:54:02.331Z,23.56
2018-07-31T03:56:36.756Z,23.25
2018-07-31T03:59:23.150Z,23.41
2018-07-31T04:02:01.683Z,23.56
2018-07-31T04:04:31.630Z,23.56
2018-07-31T04:07:01.474Z,23.42
2018-07-31T04:09:33.500Z,23.33
2018-07-31T04:12:09.202Z,23.44
2018-07-31T04:14:42.624Z,23.49
2018-07-31T04:17:13.645Z,23.43
2018-07-31T04:19:42.532Z,23.36
2018-07-31T04:22:21.186Z,23.39
2018-07-31T04:25:08.248Z,23.39
2018-07-31T04:27:40.348Z,23.33
2018-07-31T04:30:12.417Z,23.35
2018-07-31T04:32:43.245Z,23.45
2018-07-31T04:35:12.135Z,23.41
2018-07-31T04:37:43.026Z,23.25
2018-07-31T04:40:23.676Z,23.23
2018-07-31T04:42:58.364Z,23.16
2018-07-31T04:45:27.864Z,23.34
2018-07-31T04:48:20.302Z,23.42
2018-07-31T04:50:49.194Z,23.37
2018-07-31T04:53:21.357Z,23.37
2018-07-31T04:55:50.223Z,23.13
2018-07-31T04:58:19.354Z,23.39
2018-07-31T05:00:48.279Z,23.29
2018-07-31T05:03:17.170Z,23.41
2018-07-31T05:05:49.710Z,23.40
2018-07-31T05:08:22.926Z,23.46
2018-07-31T05:11:01.828Z,23.49
2018-07-31T05:13:41.996Z,23.58
2018-07-31T05:16:16.546Z,23.64
2018-07-31T05:18:47.445Z,23.64
2018-07-31T05:21:17.392Z,23.51
2018-07-31T05:23:46.383Z,23.64
2018-07-31T05:26:15.264Z,23.68
2018-07-31T05:28:44.170Z,23.66
2018-07-31T05:31:14.182Z,23.75
2018-07-31T05:33:43.028Z,23.80
2018-07-31T05:36:11.943Z,23.79
2018-07-31T05:38:40.778Z,23.90
2018-07-31T05:41:09.662Z,23.83
2018-07-31T05:43:38.548Z,23.92
2018-07-31T05:46:07.459Z,23.82
2018-07-31T05:48:36.299Z,23.85
2018-07-31T05:51:05.207Z,23.92
2018-07-31T05:53:34.062Z,23.98
2018-07-31T05:56:03.082Z,24.01
2018-07-31T05:58:32.060Z,24.17
2018-07-31T06:01:01.208Z,24.24
2018-07-31T06:03:30.135Z,24.18
2018-07-31T06:06:03.045Z,24.22
2018-07-31T06:08:31.870Z,24.22
2018-07-31T06:11:04.110Z,24.18
2018-07-31T06:13:33.053Z,24.11
2018-07-31T06:16:01.927Z,24.23
2018-07-31T06:18:30.798Z,24.24
2018-07-31T06:21:03.043Z,24.16
2018-07-31T06:23:31.923Z,24.12
2018-07-31T06:26:04.720Z,24.21
2018-07-31T06:28:33.622Z,24.29
2018-07-31T06:31:03.710Z,24.20
2018-07-31T06:33:36.462Z,24.20
2018-07-31T06:36:17.838Z,24.40
2018-07-31T06:38:46.724Z,24.47
2018-07-31T06:41:15.592Z,24.28
2018-07-31T06:43:44.577Z,24.43
2018-07-31T06:46:30.634Z,24.38
2018-07-31T06:48:59.494Z,24.48
2018-07-31T06:51:28.406Z,24.41
2018-07-31T06:53:57.280Z,24.45
2018-07-31T06:56:26.159Z,24.52
2018-07-31T06:58:55.383Z,24.70
2018-07-31T07:01:27.511Z,24.64
2018-07-31T07:03:59.831Z,24.64
2018-07-31T07:06:32.948Z,24.69
2018-07-31T07:09:01.813Z,24.76
2018-07-31T07:11:30.838Z,24.74
2018-07-31T07:13:59.860Z,24.83
2018-07-31T07:16:28.919Z,24.89
2018-07-31T07:18:57.850Z,24.96
2018-07-31T07:21:26.720Z,24.96
2018-07-31T07:23:55.596Z,24.94
2018-07-31T07:26:24.465Z,24.96
2018-07-31T07:28:54.366Z,25.06
2018-07-31T07:31:23.478Z,25.19
2018-07-31T07:33:57.519Z,25.32
2018-07-31T07:36:26.311Z,25.35
2018-07-31T07:38:55.183Z,25.35
2018-07-31T07:41:28.700Z,25.32
2018-07-31T07:43:57.560Z,25.44
2018-07-31T07:46:31.411Z,25.47
2018-07-31T07:49:12.289Z,25.63
2018-07-31T07:51:52.645Z,25.78
2018-07-31T07:54:27.564Z,25.85
2018-07-31T07:57:12.998Z,25.76
2018-07-31T07:59:42.882Z,25.77
2018-07-31T08:02:12.867Z,25.78
2018-07-31T08:04:42.774Z,25.83
2018-07-31T08:07:21.115Z,25.86
2018-07-31T08:09:52.066Z,25.88
2018-07-31T08:12:21.235Z,25.86
2018-07-31T08:15:02.398Z,25.89
2018-07-31T08:17:36.457Z,25.99
2018-07-31T08:20:11.193Z,26.06
2018-07-31T08:22:44.319Z,26.18
2018-07-31T08:25:18.333Z,26.32
2018-07-31T08:27:50.435Z,26.38
2018-07-31T08:30:19.293Z,26.43
2018-07-31T08:32:49.178Z,26.48
2018-07-31T08:35:19.058Z,26.63
2018-07-31T08:37:48.072Z,26.74
2018-07-31T08:40:17.184Z,26.82
2018-07-31T08:42:46.225Z,26.85
2018-07-31T08:45:18.256Z,26.99
2018-07-31T08:47:48.205Z,27.04
2018-07-31T08:50:17.183Z,27.03
2018-07-31T08:52:46.042Z,27.11
2018-07-31T08:55:20.705Z,27.17
2018-07-31T08:58:00.436Z,27.25
2018-07-31T09:00:31.402Z,27.21
2018-07-31T09:03:01.591Z,27.29
2018-07-31T09:05:34.194Z,27.33
2018-07-31T09:08:03.255Z,27.39
2018-07-31T09:10:33.134Z,27.52
2018-07-31T09:13:05.276Z,27.72
2018-07-31T09:15:37.654Z,27.87
2018-07-31T09:18:06.717Z,27.81
2018-07-31T09:20:35.604Z,27.74
2018-07-31T09:23:04.620Z,27.74
2018-07-31T09:25:38.869Z,27.83
2018-07-31T09:28:09.088Z,27.79
2018-07-31T09:30:47.409Z,27.80
2018-07-31T09:33:17.653Z,27.78
2018-07-31T09:35:53.183Z,27.85
2018-07-31T09:38:24.108Z,27.90
2018-07-31T09:40:53.150Z,27.83
2018-07-31T09:43:22.117Z,27.97
2018-07-31T09:45:54.950Z,28.07
2018-07-31T09:48:23.916Z,28.12
2018-07-31T09:50:53.868Z,28.03
2018-07-31T09:53:27.562Z,28.05
2018-07-31T09:55:56.438Z,28.02
2018-07-31T09:58:25.412Z,28.15
2018-07-31T10:01:04.648Z,28.36
2018-07-31T10:03:39.034Z,28.47
2018-07-31T10:06:09.274Z,28.84
2018-07-31T10:08:38.274Z,28.66
2018-07-31T10:11:07.126Z,28.79
2018-07-31T10:13:54.362Z,28.91
2018-07-31T10:16:23.306Z,28.86
2018-07-31T10:18:58.751Z,28.69
2018-07-31T10:21:33.514Z,28.75
2018-07-31T10:24:03.458Z,28.73
2018-07-31T10:26:35.838Z,28.64
2018-07-31T10:29:04.733Z,28.81
2018-07-31T10:31:34.025Z,28.85
2018-07-31T10:34:06.365Z,28.92
2018-07-31T10:36:35.263Z,28.88
2018-07-31T10:39:07.947Z,29.03
2018-07-31T10:41:47.955Z,29.07
2018-07-31T10:44:22.793Z,29.24
2018-07-31T10:46:51.763Z,29.28
2018-07-31T10:49:27.293Z,29.10
2018-07-31T10:52:02.045Z,28.96
2018-07-31T10:54:31.439Z,29.07
2018-07-31T10:57:00.329Z,29.14
2018-07-31T10:59:34.569Z,29.09
2018-07-31T11:02:03.379Z,28.91
2018-07-31T11:04:35.737Z,28.85
2018-07-31T11:07:04.770Z,29.23
2018-07-31T11:09:33.643Z,29.20
2018-07-31T11:12:02.542Z,29.28
2018-07-31T11:14:41.322Z,29.31
2018-07-31T11:17:10.507Z,29.55
2018-07-31T11:19:39.525Z,29.59
2018-07-31T11:22:14.784Z,29.64
2018-07-31T11:24:43.660Z,29.27
2018-07-31T11:27:12.546Z,29.18
2018-07-31T11:29:41.442Z,29.47
2018-07-31T11:32:18.173Z,29.55
2018-07-31T11:34:47.041Z,29.44
2018-07-31T11:37:15.909Z,29.37
2018-07-31T11:39:50.064Z,29.27
2018-07-31T11:42:18.928Z,29.61
2018-07-31T11:44:48.049Z,29.97
2018-07-31T11:47:17.287Z,29.80
2018-07-31T11:49:46.238Z,29.82
2018-07-31T11:52:15.116Z,29.61
2018-07-31T11:54:44.981Z,29.57
2018-07-31T11:57:17.665Z,29.39
2018-07-31T11:59:46.571Z,29.59
2018-07-31T12:02:15.647Z,29.91
2018-07-31T12:04:44.638Z,29.67
2018-07-31T12:07:18.435Z,29.57
2018-07-31T12:09:47.333Z,29.53
2018-07-31T12:12:16.282Z,29.48
2018-07-31T12:14:45.157Z,29.38
2018-07-31T12:17:14.014Z,29.16
2018-07-31T12:19:42.914Z,29.31
2018-07-31T12:22:11.782Z,29.44
2018-07-31T12:24:45.152Z,29.53
2018-07-31T12:27:14.037Z,29.87
2018-07-31T12:29:43.060Z,30.23
2018-07-31T12:32:12.243Z,30.17
2018-07-31T12:34:41.092Z,30.00
2018-07-31T12:37:13.905Z,29.86
2018-07-31T12:39:46.141Z,30.23
2018-07-31T12:42:14.997Z,29.75
2018-07-31T12:44:50.257Z,29.69
2018-07-31T12:47:19.165Z,29.89
2018-07-31T12:49:48.049Z,29.99
2018-07-31T12:52:17.028Z,29.99
2018-07-31T12:54:45.999Z,30.09
2018-07-31T12:57:14.898Z,30.33
2018-07-31T12:59:43.772Z,30.22
2018-07-31T13:02:12.621Z,30.31
2018-07-31T13:04:46.166Z,30.23
2018-07-31T13:07:15.046Z,30.02
2018-07-31T13:09:43.954Z,29.55
2018-07-31T13:12:12.848Z,29.66
2018-07-31T13:14:43.735Z,30.08
2018-07-31T13:17:12.729Z,30.30
2018-07-31T13:20:02.220Z,29.98
2018-07-31T13:22:31.118Z,29.83
2018-07-31T13:24:59.958Z,30.17
2018-07-31T13:27:31.996Z,30.28
2018-07-31T13:30:00.887Z,30.33
2018-07-31T13:32:30.775Z,30.58
2018-07-31T13:34:59.630Z,30.59
2018-07-31T13:37:28.518Z,30.41
2018-07-31T13:39:57.365Z,30.77
2018-07-31T13:42:26.268Z,30.65
2018-07-31T13:44:55.513Z,30.40
2018-07-31T13:47:24.395Z,30.39
2018-07-31T13:49:53.256Z,30.52
2018-07-31T13:52:22.373Z,30.55
2018-07-31T13:54:51.224Z,30.45
2018-07-31T13:57:20.123Z,30.37
2018-07-31T13:59:49.011Z,30.46
2018-07-31T14:02:17.872Z,30.61
2018-07-31T14:04:46.769Z,30.69
2018-07-31T14:07:15.933Z,30.46
2018-07-31T14:09:44.824Z,30.46
2018-07-31T14:12:13.724Z,30.33
2018-07-31T14:14:54.641Z,30.54
2018-07-31T14:17:27.225Z,30.52
2018-07-31T14:19:56.074Z,30.28
2018-07-31T14:22:37.182Z,30.41
2018-07-31T14:25:18.789Z,30.50
2018-07-31T14:27:47.789Z,30.57
2018-07-31T14:30:16.755Z,30.47
2018-07-31T14:32:45.794Z,30.59
2018-07-31T14:35:14.680Z,30.49
2018-07-31T14:37:49.808Z,30.86
2018-07-31T14:40:18.829Z,30.62
2018-07-31T14:43:04.424Z,30.48
2018-07-31T14:45:44.085Z,30.38
2018-07-31T14:48:16.095Z,30.41
2018-07-31T14:50:45.022Z,30.32
2018-07-31T14:53:15.004Z,30.49
2018-07-31T14:55:48.512Z,30.44
2018-07-31T14:58:17.412Z,30.26
2018-07-31T15:00:46.306Z,30.32
2018-07-31T15:03:15.320Z,30.14
2018-07-31T15:05:44.251Z,30.00
2018-07-31T15:08:15.134Z,29.73
2018-07-31T15:10:45.168Z,29.90
2018-07-31T15:13:15.034Z,30.19
2018-07-31T15:15:45.954Z,29.96
2018-07-31T15:18:15.631Z,30.18
2018-07-31T15:20:47.927Z,30.02
2018-07-31T15:23:18.372Z,30.04
2018-07-31T15:25:52.624Z,30.11
2018-07-31T15:28:26.298Z,30.13
2018-07-31T15:31:04.981Z,29.83
2018-07-31T15:33:34.602Z,30.22
2018-07-31T15:36:05.588Z,30.25
2018-07-31T15:38:42.179Z,30.30
2018-07-31T15:41:11.270Z,29.95
2018-07-31T15:43:42.512Z,29.83
2018-07-31T15:46:13.848Z,29.96
2018-07-31T15:48:43.248Z,30.08
2018-07-31T15:51:13.757Z,30.12
2018-07-31T15:53:42.720Z,30.04
2018-07-31T15:56:12.751Z,30.14
2018-07-31T15:58:42.666Z,29.87
2018-07-31T16:01:11.684Z,29.98
2018-07-31T16:03:40.577Z,29.79
2018-07-31T16:06:09.506Z,29.93
2018-07-31T16:08:39.710Z,29.87
2018-07-31T16:11:08.634Z,29.90
2018-07-31T16:13:37.563Z,29.73
2018-07-31T16:16:06.610Z,29.62
2018-07-31T16:18:35.528Z,29.53
2018-07-31T16:21:05.044Z,29.36
2018-07-31T16:23:35.258Z,29.17
2018-07-31T16:26:04.288Z,29.24
2018-07-31T16:28:36.293Z,29.25
2018-07-31T16:31:06.124Z,29.22
2018-07-31T16:33:35.892Z,29.29
2018-07-31T16:36:04.850Z,29.70
2018-07-31T16:38:40.439Z,29.76
2018-07-31T16:41:11.469Z,29.56
2018-07-31T16:43:40.716Z,29.48
2018-07-31T16:46:10.826Z,29.24
2018-07-31T16:48:41.214Z,29.06
2018-07-31T16:51:17.735Z,29.14
2018-07-31T16:53:48.016Z,29.14
2018-07-31T16:56:18.973Z,29.05
2018-07-31T16:58:52.607Z,29.14
2018-07-31T17:01:22.539Z,29.14
2018-07-31T17:03:51.558Z,29.15
2018-07-31T17:06:24.088Z,29.16
2018-07-31T17:08:52.949Z,29.16
2018-07-31T17:11:34.879Z,29.10
2018-07-31T17:14:17.906Z,29.03
2018-07-31T17:16:47.340Z,29.12
2018-07-31T17:19:20.669Z,28.99
2018-07-31T17:21:53.077Z,28.90
2018-07-31T17:24:25.368Z,28.83
2018-07-31T17:26:54.825Z,28.75
2018-07-31T17:29:23.720Z,28.66
2018-07-31T17:31:58.510Z,28.57
2018-07-31T17:34:27.417Z,28.66
2018-07-31T17:36:58.463Z,28.59
2018-07-31T17:39:28.458Z,28.40
2018-07-31T17:41:59.456Z,28.45
2018-07-31T17:44:28.475Z,28.40
2018-07-31T17:47:02.763Z,28.40
2018-07-31T17:49:35.765Z,28.37
2018-07-31T17:52:04.970Z,28.26
2018-07-31T17:54:33.936Z,28.01
2018-07-31T17:57:04.842Z,28.05
2018-07-31T17:59:33.775Z,27.98
2018-07-31T18:02:04.968Z,27.95
2018-07-31T18:04:34.858Z,27.95
2018-07-31T18:07:03.773Z,27.78
2018-07-31T18:09:36.827Z,27.75
2018-07-31T18:12:06.131Z,27.78
2018-07-31T18:14:42.445Z,27.69
2018-07-31T18:17:13.760Z,27.64
2018-07-31T18:19:45.057Z,27.56
2018-07-31T18:22:14.371Z,27.58
2018-07-31T18:24:44.292Z,27.51
2018-07-31T18:27:14.326Z,27.51
2018-07-31T18:29:46.613Z,27.30
2018-07-31T18:32:16.646Z,27.31
2018-07-31T18:34:46.613Z,27.33
2018-07-31T18:37:15.640Z,27.19
2018-07-31T18:39:44.575Z,27.25
2018-07-31T18:42:13.479Z,27.17
2018-07-31T18:44:42.361Z,27.18
2018-07-31T18:47:17.693Z,27.02
2018-07-31T18:49:58.444Z,27.19
2018-07-31T18:52:28.395Z,26.99
2018-07-31T18:54:57.304Z,27.12
2018-07-31T18:57:30.599Z,27.15
2018-07-31T19:00:12.377Z,26.98
2018-07-31T19:02:43.356Z,26.93
2018-07-31T19:05:14.279Z,26.89
2018-07-31T19:07:43.259Z,26.88
2018-07-31T19:10:15.672Z,26.79
2018-07-31T19:12:48.979Z,26.71
2018-07-31T19:15:31.705Z,26.70
2018-07-31T19:18:05.931Z,26.68
2018-07-31T19:20:35.368Z,26.73
2018-07-31T19:23:04.483Z,26.68
2018-07-31T19:25:38.053Z,26.65
2018-07-31T19:28:08.511Z,26.53
2018-07-31T19:30:42.398Z,26.45
2018-07-31T19:33:16.856Z,26.54
2018-07-31T19:35:46.865Z,26.49
2018-07-31T19:38:17.828Z,26.46
2018-07-31T19:40:54.530Z,26.56
2018-07-31T19:43:27.009Z,26.62
2018-07-31T19:46:06.702Z,26.49
2018-07-31T19:48:35.613Z,26.38
2018-07-31T19:51:09.776Z,26.21
2018-07-31T19:53:38.740Z,26.23
2018-07-31T19:56:07.621Z,26.21
2018-07-31T19:58:42.318Z,26.27
2018-07-31T20:01:17.364Z,26.31
2018-07-31T20:03:46.394Z,26.30
2018-07-31T20:06:15.386Z,26.12
2018-07-31T20:08:44.335Z,26.10
2018-07-31T20:11:14.312Z,26.04
2018-07-31T20:13:43.336Z,25.89
2018-07-31T20:19:18.046Z,25.87
2018-07-31T20:21:47.207Z,25.87
2018-07-31T20:24:16.156Z,25.81
2018-07-31T20:26:48.324Z,25.75
2018-07-31T20:29:22.834Z,25.67
2018-07-31T20:31:53.002Z,25.74
2018-07-31T20:34:32.737Z,25.79
2018-07-31T20:37:05.302Z,25.74
2018-07-31T20:39:35.186Z,25.64
2018-07-31T20:42:06.149Z,25.65
2018-07-31T20:44:44.532Z,25.47
2018-07-31T20:47:13.413Z,25.69
2018-07-31T20:49:44.265Z,25.64
2018-07-31T20:52:13.603Z,25.68
2018-07-31T20:54:42.573Z,25.66
2018-07-31T20:57:11.968Z,25.64
2018-07-31T20:59:41.615Z,25.62
2018-07-31T21:02:13.017Z,25.58
2018-07-31T21:04:45.447Z,25.50
2018-07-31T21:07:34.263Z,25.53
2018-07-31T21:10:03.419Z,25.50
2018-07-31T21:12:45.846Z,25.50
2018-07-31T21:15:19.958Z,25.45
2018-07-31T21:17:49.393Z,25.44
2018-07-31T21:20:25.966Z,25.33
2018-07-31T21:23:04.975Z,25.35
2018-07-31T21:25:35.938Z,25.30
2018-07-31T21:28:08.577Z,25.12
2018-07-31T21:30:37.482Z,24.88
2018-07-31T21:33:18.914Z,24.92
2018-07-31T21:35:54.187Z,25.12
2018-07-31T21:38:23.052Z,25.05
2018-07-31T21:40:52.907Z,24.99
2018-07-31T21:43:26.386Z,25.00
2018-07-31T21:46:07.438Z,24.95
2018-07-31T21:48:40.463Z,24.86
2018-07-31T21:54:21.773Z,24.84
2018-07-31T21:56:57.907Z,24.87
2018-07-31T22:02:20.509Z,24.81
2018-07-31T22:04:51.439Z,24.68
2018-07-31T22:07:20.402Z,24.65
2018-07-31T22:10:01.673Z,24.56
2018-07-31T22:12:35.484Z,24.58
2018-07-31T22:15:19.084Z,24.64
2018-07-31T22:17:56.459Z,24.47
2018-07-31T22:20:32.765Z,24.42
2018-07-31T22:23:07.916Z,24.30
2018-07-31T22:25:39.199Z,24.21
2018-07-31T22:31:15.255Z,24.22
2018-07-31T22:34:02.445Z,24.09
2018-07-31T22:36:36.813Z,24.15
2018-07-31T22:39:07.970Z,24.09
2018-07-31T22:41:36.845Z,23.90
2018-07-31T22:44:05.776Z,24.02
2018-07-31T22:46:34.622Z,24.00
2018-07-31T22:49:03.585Z,24.04
2018-07-31T22:54:32.435Z,23.80
2018-07-31T22:57:01.342Z,24.04
2018-07-31T22:59:30.216Z,23.96
2018-07-31T23:02:11.167Z,23.89
2018-07-31T23:04:40.059Z,23.85
2018-07-31T23:07:08.924Z,23.75
2018-07-31T23:09:37.872Z,23.79
2018-07-31T23:12:06.760Z,23.52
2018-07-31T23:14:39.508Z,23.63
2018-07-31T23:17:08.389Z,23.70
2018-07-31T23:19:37.262Z,23.63
2018-07-31T23:22:06.146Z,23.49
2018-07-31T23:24:40.610Z,23.49
2018-07-31T23:27:20.384Z,23.53
2018-07-31T23:29:49.413Z,23.48
2018-07-31T23:32:19.425Z,23.24
2018-07-31T23:34:48.566Z,23.32
2018-07-31T23:37:17.463Z,23.32
2018-07-31T23:39:46.361Z,23.19
2018-07-31T23:42:17.257Z,23.08
2018-07-31T23:44:46.161Z,23.27
2018-07-31T23:47:20.892Z,23.42
2018-07-31T23:49:50.104Z,23.19
2018-07-31T23:52:19.060Z,23.18
2018-07-31T23:54:48.088Z,23.03
2018-07-31T23:57:17.276Z,23.05
2018-07-31T23:59:46.266Z,23.22
